NKS260 KFLL-SKAR
Flight info
| Callsign | NKS260 |
|---|---|
| Flight time | 3h 14m |
| Altitude | 37000 |
| Route | REGAE2 URSUS UP406 AKPEK UQ121 RNG DCT MATRO MATRO1H |
| Aircraft | A320/M-SDE3FGHIRWY/LB1 |
Departure
| Time | 2026-05-03 23:47 |
|---|---|
| Airport | Fort Lauderdale Hollywood International Airport (KFLL) |
Arrival
| Time | 2026-05-04 03:02 |
|---|---|
| Airport | El Eden Airport (SKAR) |
| Time | Latitude | Longitude | Altitude | Speed | Heading |
|---|---|---|---|---|---|
| 2026-05-03 22:40 | 26.06901 | -80.14174 | 16 ft | 0 kts | 328° |
| 2026-05-03 22:57 | 26.06892 | -80.14168 | 16 ft | 2 kts | 326° |
| 2026-05-03 22:57 | 26.06878 | -80.14158 | 17 ft | 2 kts | 328° |
| 2026-05-03 22:57 | 26.06864 | -80.14149 | 18 ft | 2 kts | 328° |
| 2026-05-03 22:57 | 26.06850 | -80.14139 | 17 ft | 2 kts | 327° |
| 2026-05-03 22:58 | 26.06836 | -80.14129 | 19 ft | 2 kts | 324° |
| 2026-05-03 22:58 | 26.06823 | -80.14117 | 18 ft | 2 kts | 295° |
| 2026-05-03 22:58 | 26.06821 | -80.14110 | 18 ft | 0 kts | 253° |
| 2026-05-03 23:06 | 26.06820 | -80.14115 | 25 ft | 6 kts | 256° |
| 2026-05-03 23:06 | 26.06817 | -80.14187 | 16 ft | 15 kts | 271° |
| 2026-05-03 23:07 | 26.06798 | -80.14268 | 16 ft | 15 kts | 223° |
| 2026-05-03 23:07 | 26.06771 | -80.14377 | 16 ft | 17 kts | 272° |
| 2026-05-03 23:07 | 26.06769 | -80.14518 | 16 ft | 15 kts | 262° |
| 2026-05-03 23:07 | 26.06766 | -80.14625 | 16 ft | 13 kts | 271° |
| 2026-05-03 23:08 | 26.06767 | -80.14718 | 16 ft | 11 kts | 270° |
| 2026-05-03 23:08 | 26.06767 | -80.14798 | 16 ft | 9 kts | 270° |
| 2026-05-03 23:08 | 26.06767 | -80.14865 | 16 ft | 8 kts | 269° |
| 2026-05-03 23:08 | 26.06767 | -80.14920 | 16 ft | 6 kts | 270° |
| 2026-05-03 23:09 | 26.06767 | -80.14965 | 16 ft | 5 kts | 271° |
| 2026-05-03 23:09 | 26.06768 | -80.15001 | 16 ft | 4 kts | 270° |
| 2026-05-03 23:09 | 26.06768 | -80.15036 | 16 ft | 7 kts | 270° |
| 2026-05-03 23:09 | 26.06756 | -80.15116 | 18 ft | 13 kts | 227° |
| 2026-05-03 23:10 | 26.06727 | -80.15132 | 19 ft | 6 kts | 201° |
| 2026-05-03 23:10 | 26.06694 | -80.15220 | 21 ft | 16 kts | 271° |
| 2026-05-03 23:10 | 26.06696 | -80.15324 | 16 ft | 11 kts | 270° |
| 2026-05-03 23:10 | 26.06697 | -80.15401 | 16 ft | 9 kts | 271° |
| 2026-05-03 23:11 | 26.06697 | -80.15460 | 16 ft | 6 kts | 270° |
| 2026-05-03 23:11 | 26.06697 | -80.15476 | 16 ft | 0 kts | 270° |
| 2026-05-03 23:11 | 26.06697 | -80.15481 | 16 ft | 2 kts | 270° |
| 2026-05-03 23:11 | 26.06697 | -80.15501 | 16 ft | 5 kts | 270° |
| 2026-05-03 23:12 | 26.06697 | -80.15514 | 16 ft | 0 kts | 270° |
| 2026-05-03 23:13 | 26.06697 | -80.15519 | 16 ft | 4 kts | 270° |
| 2026-05-03 23:14 | 26.06698 | -80.15615 | 16 ft | 12 kts | 270° |
| 2026-05-03 23:14 | 26.06698 | -80.15651 | 16 ft | 1 kts | 270° |
| 2026-05-03 23:14 | 26.06698 | -80.15652 | 16 ft | 0 kts | 270° |
| 2026-05-03 23:14 | 26.06698 | -80.15656 | 16 ft | 3 kts | 270° |
| 2026-05-03 23:15 | 26.06698 | -80.15672 | 16 ft | 0 kts | 270° |
| 2026-05-03 23:35 | 26.06698 | -80.15676 | 16 ft | 1 kts | 270° |
| 2026-05-03 23:36 | 26.06698 | -80.15693 | 17 ft | 3 kts | 269° |
| 2026-05-03 23:36 | 26.06691 | -80.15715 | 16 ft | 1 kts | 243° |
| 2026-05-03 23:36 | 26.06690 | -80.15718 | 16 ft | 1 kts | 240° |
| 2026-05-03 23:36 | 26.06688 | -80.15720 | 16 ft | 0 kts | 232° |
| 2026-05-03 23:46 | 26.06678 | -80.15732 | 18 ft | 5 kts | 221° |
| 2026-05-03 23:46 | 26.06634 | -80.15741 | 18 ft | 8 kts | 182° |
| 2026-05-03 23:46 | 26.06590 | -80.15710 | 21 ft | 9 kts | 107° |
| 2026-05-03 23:46 | 26.06589 | -80.15693 | 21 ft | 1 kts | 92° |
| 2026-05-03 23:47 | 26.06588 | -80.15516 | 23 ft | 55 kts | 89° |
| 2026-05-03 23:47 | 26.06589 | -80.14826 | 21 ft | 120 kts | 89° |
| 2026-05-03 23:47 | 26.06593 | -80.13703 | 186 ft | 156 kts | 87° |
| 2026-05-03 23:47 | 26.06586 | -80.12477 | 741 ft | 159 kts | 88° |
| 2026-05-03 23:48 | 26.06604 | -80.11218 | 1297 ft | 168 kts | 89° |
| 2026-05-03 23:48 | 26.06627 | -80.09909 | 1920 ft | 173 kts | 88° |
| 2026-05-03 23:48 | 26.06649 | -80.08518 | 2354 ft | 188 kts | 89° |
| 2026-05-03 23:48 | 26.06671 | -80.07005 | 2739 ft | 203 kts | 90° |
| 2026-05-03 23:49 | 26.06687 | -80.05367 | 3135 ft | 220 kts | 89° |
| 2026-05-03 23:49 | 26.06702 | -80.03583 | 3538 ft | 236 kts | 90° |
| 2026-05-03 23:49 | 26.06717 | -80.01675 | 3906 ft | 258 kts | 90° |
| 2026-05-03 23:49 | 26.06727 | -79.99568 | 4003 ft | 281 kts | 90° |
| 2026-05-03 23:50 | 26.06718 | -79.97394 | 4010 ft | 280 kts | 91° |
| 2026-05-03 23:50 | 26.06705 | -79.95961 | 4012 ft | 281 kts | 91° |
| 2026-05-03 23:50 | 26.06669 | -79.93050 | 4015 ft | 281 kts | 91° |
| 2026-05-03 23:50 | 26.06641 | -79.90875 | 4015 ft | 281 kts | 91° |
| 2026-05-03 23:51 | 26.06616 | -79.88707 | 4015 ft | 281 kts | 91° |
| 2026-05-03 23:51 | 26.06592 | -79.86527 | 4018 ft | 282 kts | 91° |
| 2026-05-03 23:51 | 26.06570 | -79.84350 | 4016 ft | 282 kts | 91° |
| 2026-05-03 23:51 | 26.06420 | -79.82184 | 4142 ft | 280 kts | 101° |
| 2026-05-03 23:52 | 26.06074 | -79.80032 | 4830 ft | 286 kts | 101° |
| 2026-05-03 23:52 | 26.05732 | -79.77840 | 5640 ft | 290 kts | 101° |
| 2026-05-03 23:52 | 26.05388 | -79.75613 | 6432 ft | 294 kts | 101° |
| 2026-05-03 23:52 | 26.05040 | -79.73353 | 7165 ft | 299 kts | 101° |
| 2026-05-03 23:53 | 26.04688 | -79.71059 | 7914 ft | 303 kts | 101° |
| 2026-05-03 23:53 | 26.04325 | -79.68707 | 8682 ft | 307 kts | 101° |
| 2026-05-03 23:53 | 26.03958 | -79.66356 | 9448 ft | 310 kts | 102° |
| 2026-05-03 23:53 | 26.03524 | -79.63991 | 10182 ft | 313 kts | 108° |
| 2026-05-03 23:54 | 26.02944 | -79.61601 | 10602 ft | 328 kts | 107° |
| 2026-05-03 23:54 | 26.02332 | -79.59085 | 10947 ft | 345 kts | 107° |
| 2026-05-03 23:54 | 26.01694 | -79.56451 | 11334 ft | 359 kts | 107° |
| 2026-05-03 23:54 | 26.00962 | -79.53781 | 11939 ft | 362 kts | 116° |
| 2026-05-03 23:55 | 25.99733 | -79.51367 | 12607 ft | 360 kts | 131° |
| 2026-05-03 23:55 | 25.97999 | -79.49370 | 13263 ft | 358 kts | 146° |
| 2026-05-03 23:55 | 25.95886 | -79.47939 | 13909 ft | 355 kts | 161° |
| 2026-05-03 23:55 | 25.93547 | -79.47138 | 14447 ft | 352 kts | 173° |
| 2026-05-03 23:56 | 25.91129 | -79.46633 | 15020 ft | 355 kts | 174° |
| 2026-05-03 23:56 | 25.88691 | -79.46118 | 15590 ft | 358 kts | 174° |
| 2026-05-03 23:56 | 25.86226 | -79.45792 | 16169 ft | 356 kts | 184° |
| 2026-05-03 23:56 | 25.83776 | -79.46043 | 16739 ft | 352 kts | 196° |
| 2026-05-03 23:57 | 25.81452 | -79.46860 | 17307 ft | 350 kts | 208° |
| 2026-05-03 23:57 | 25.79342 | -79.48182 | 17879 ft | 349 kts | 216° |
| 2026-05-03 23:57 | 25.77303 | -79.49671 | 18419 ft | 352 kts | 216° |
| 2026-05-03 23:57 | 25.75249 | -79.51164 | 18914 ft | 354 kts | 216° |
| 2026-05-03 23:58 | 25.73187 | -79.52662 | 19429 ft | 356 kts | 216° |
| 2026-05-03 23:58 | 25.71109 | -79.54169 | 19941 ft | 358 kts | 216° |
| 2026-05-03 23:58 | 25.69019 | -79.55680 | 20446 ft | 359 kts | 217° |
| 2026-05-03 23:58 | 25.66984 | -79.57285 | 20957 ft | 359 kts | 221° |
| 2026-05-03 23:59 | 25.65023 | -79.59007 | 21457 ft | 361 kts | 221° |
| 2026-05-03 23:59 | 25.63686 | -79.60180 | 21796 ft | 363 kts | 221° |
| 2026-05-03 23:59 | 25.61702 | -79.61918 | 22295 ft | 365 kts | 221° |
| 2026-05-03 23:59 | 25.59706 | -79.63666 | 22794 ft | 366 kts | 222° |
| 2026-05-04 00:00 | 25.57702 | -79.65421 | 23280 ft | 368 kts | 222° |
| 2026-05-04 00:00 | 25.55721 | -79.67226 | 23727 ft | 370 kts | 223° |
| 2026-05-04 00:00 | 25.53746 | -79.69065 | 24100 ft | 372 kts | 224° |
| 2026-05-04 00:00 | 25.51759 | -79.70900 | 24488 ft | 373 kts | 223° |
| 2026-05-04 00:01 | 25.49693 | -79.72660 | 24867 ft | 376 kts | 220° |
| 2026-05-04 00:01 | 25.47532 | -79.74321 | 25234 ft | 379 kts | 219° |
| 2026-05-04 00:01 | 25.45363 | -79.75986 | 25588 ft | 380 kts | 220° |
| 2026-05-04 00:01 | 25.43210 | -79.77691 | 25941 ft | 381 kts | 220° |
| 2026-05-04 00:02 | 25.41088 | -79.79442 | 26287 ft | 382 kts | 222° |
| 2026-05-04 00:02 | 25.38924 | -79.81164 | 26628 ft | 386 kts | 216° |
| 2026-05-04 00:02 | 25.36466 | -79.82433 | 26973 ft | 396 kts | 204° |
| 2026-05-04 00:02 | 25.33752 | -79.83146 | 27288 ft | 407 kts | 194° |
| 2026-05-04 00:03 | 25.30877 | -79.83143 | 27598 ft | 424 kts | 178° |
| 2026-05-04 00:03 | 25.27967 | -79.82350 | 27868 ft | 434 kts | 172° |
| 2026-05-04 00:03 | 25.25054 | -79.81408 | 28126 ft | 438 kts | 171° |
| 2026-05-04 00:03 | 25.22130 | -79.80432 | 28398 ft | 440 kts | 171° |
| 2026-05-04 00:04 | 25.19187 | -79.79447 | 28678 ft | 442 kts | 171° |
| 2026-05-04 00:04 | 25.16193 | -79.78458 | 28954 ft | 444 kts | 171° |
| 2026-05-04 00:04 | 25.13227 | -79.77494 | 29219 ft | 446 kts | 171° |
| 2026-05-04 00:04 | 25.10234 | -79.76537 | 29477 ft | 448 kts | 172° |
| 2026-05-04 00:05 | 25.07243 | -79.75593 | 29735 ft | 449 kts | 172° |
| 2026-05-04 00:05 | 25.04229 | -79.74642 | 29987 ft | 451 kts | 172° |
| 2026-05-04 00:05 | 25.01209 | -79.73685 | 30203 ft | 453 kts | 171° |
| 2026-05-04 00:05 | 24.98176 | -79.72721 | 30413 ft | 454 kts | 171° |
| 2026-05-04 00:06 | 24.95140 | -79.71753 | 30631 ft | 455 kts | 171° |
| 2026-05-04 00:06 | 24.92097 | -79.70782 | 30834 ft | 456 kts | 171° |
| 2026-05-04 00:06 | 24.89085 | -79.69571 | 31043 ft | 465 kts | 162° |
| 2026-05-04 00:06 | 24.86220 | -79.67829 | 31240 ft | 475 kts | 154° |
| 2026-05-04 00:07 | 24.83445 | -79.65856 | 31453 ft | 475 kts | 154° |
| 2026-05-04 00:07 | 24.80669 | -79.63888 | 31731 ft | 474 kts | 154° |
| 2026-05-04 00:07 | 24.77902 | -79.61934 | 32015 ft | 473 kts | 154° |
| 2026-05-04 00:07 | 24.75133 | -79.59986 | 32290 ft | 472 kts | 154° |
| 2026-05-04 00:08 | 24.72369 | -79.58044 | 32563 ft | 471 kts | 154° |
| 2026-05-04 00:08 | 24.69609 | -79.56107 | 32832 ft | 470 kts | 154° |
| 2026-05-04 00:08 | 24.66854 | -79.54178 | 33099 ft | 469 kts | 154° |
| 2026-05-04 00:08 | 24.64079 | -79.52299 | 33354 ft | 468 kts | 155° |
| 2026-05-04 00:09 | 24.61295 | -79.50448 | 33628 ft | 467 kts | 155° |
| 2026-05-04 00:09 | 24.58522 | -79.48591 | 33888 ft | 467 kts | 155° |
| 2026-05-04 00:09 | 24.55760 | -79.46705 | 34136 ft | 467 kts | 154° |
| 2026-05-04 00:09 | 24.53040 | -79.44768 | 34364 ft | 467 kts | 153° |
| 2026-05-04 00:10 | 24.50314 | -79.42818 | 34588 ft | 466 kts | 153° |
| 2026-05-04 00:10 | 24.47589 | -79.40884 | 34799 ft | 465 kts | 154° |
| 2026-05-04 00:10 | 24.44857 | -79.38980 | 35003 ft | 465 kts | 154° |
| 2026-05-04 00:10 | 24.42124 | -79.37102 | 35200 ft | 464 kts | 155° |
| 2026-05-04 00:11 | 24.39379 | -79.35246 | 35388 ft | 463 kts | 155° |
| 2026-05-04 00:11 | 24.36659 | -79.33348 | 35569 ft | 464 kts | 154° |
| 2026-05-04 00:11 | 24.33921 | -79.31387 | 35746 ft | 464 kts | 153° |
| 2026-05-04 00:11 | 24.31233 | -79.29407 | 35918 ft | 465 kts | 152° |
| 2026-05-04 00:12 | 24.28585 | -79.27372 | 36082 ft | 465 kts | 152° |
| 2026-05-04 00:12 | 24.25937 | -79.25333 | 36247 ft | 464 kts | 153° |
| 2026-05-04 00:12 | 24.23245 | -79.23414 | 36401 ft | 461 kts | 155° |
| 2026-05-04 00:12 | 24.20510 | -79.21574 | 36550 ft | 461 kts | 155° |
| 2026-05-04 00:13 | 24.17800 | -79.19690 | 36694 ft | 462 kts | 154° |
| 2026-05-04 00:13 | 24.15104 | -79.17755 | 36834 ft | 463 kts | 153° |
| 2026-05-04 00:13 | 24.12438 | -79.15791 | 36976 ft | 463 kts | 153° |
| 2026-05-04 00:13 | 24.09762 | -79.13855 | 37024 ft | 459 kts | 154° |
| 2026-05-04 00:14 | 24.04395 | -79.10083 | 37020 ft | 459 kts | 153° |
| 2026-05-04 00:14 | 23.98890 | -79.06689 | 37017 ft | 447 kts | 167° |
| 2026-05-04 00:15 | 23.95923 | -79.05823 | 37022 ft | 436 kts | 178° |
| 2026-05-04 00:15 | 23.92925 | -79.05349 | 37020 ft | 436 kts | 179° |
| 2026-05-04 00:15 | 23.86912 | -79.04405 | 37020 ft | 438 kts | 178° |
| 2026-05-04 00:16 | 23.80883 | -79.03344 | 37023 ft | 440 kts | 176° |
| 2026-05-04 00:16 | 23.74878 | -79.01899 | 37014 ft | 442 kts | 174° |
| 2026-05-04 00:17 | 23.68844 | -79.00599 | 37009 ft | 442 kts | 176° |
| 2026-05-04 00:17 | 23.62781 | -78.99477 | 37015 ft | 442 kts | 178° |
| 2026-05-04 00:18 | 23.56674 | -78.98264 | 37020 ft | 445 kts | 174° |
| 2026-05-04 00:18 | 23.50604 | -78.96992 | 37017 ft | 443 kts | 176° |
| 2026-05-04 00:19 | 23.44522 | -78.95875 | 37017 ft | 443 kts | 178° |
| 2026-05-04 00:19 | 23.38427 | -78.94968 | 37018 ft | 442 kts | 179° |
| 2026-05-04 00:20 | 23.32291 | -78.93959 | 37026 ft | 444 kts | 177° |
| 2026-05-04 00:20 | 23.26199 | -78.92763 | 37030 ft | 445 kts | 176° |
| 2026-05-04 00:21 | 23.20104 | -78.91513 | 37034 ft | 445 kts | 176° |
| 2026-05-04 00:21 | 23.14006 | -78.90293 | 37035 ft | 446 kts | 176° |
| 2026-05-04 00:22 | 23.07901 | -78.89100 | 37034 ft | 446 kts | 176° |
| 2026-05-04 00:22 | 23.01788 | -78.87909 | 37036 ft | 446 kts | 176° |
| 2026-05-04 00:23 | 22.95675 | -78.86714 | 37035 ft | 447 kts | 176° |
| 2026-05-04 00:23 | 22.89561 | -78.85516 | 37037 ft | 447 kts | 176° |
| 2026-05-04 00:24 | 22.83436 | -78.84317 | 37033 ft | 447 kts | 176° |
| 2026-05-04 00:24 | 22.77322 | -78.83122 | 37028 ft | 447 kts | 176° |
| 2026-05-04 00:25 | 22.71201 | -78.81928 | 37021 ft | 447 kts | 176° |
| 2026-05-04 00:25 | 22.65081 | -78.80735 | 37023 ft | 447 kts | 176° |
| 2026-05-04 00:26 | 22.58955 | -78.79542 | 37028 ft | 448 kts | 176° |
| 2026-05-04 00:26 | 22.52824 | -78.78349 | 37037 ft | 448 kts | 176° |
| 2026-05-04 00:27 | 22.46694 | -78.77157 | 37042 ft | 447 kts | 176° |
| 2026-05-04 00:27 | 22.40562 | -78.75956 | 37036 ft | 448 kts | 176° |
| 2026-05-04 00:28 | 22.34390 | -78.74655 | 37038 ft | 449 kts | 175° |
| 2026-05-04 00:28 | 22.28248 | -78.73400 | 37039 ft | 449 kts | 176° |
| 2026-05-04 00:29 | 22.22108 | -78.72148 | 37047 ft | 450 kts | 176° |
| 2026-05-04 00:29 | 22.15951 | -78.70917 | 37055 ft | 450 kts | 176° |
| 2026-05-04 00:30 | 22.10832 | -78.69927 | 37043 ft | 450 kts | 176° |
| 2026-05-04 00:30 | 22.04668 | -78.68748 | 37056 ft | 449 kts | 176° |
| 2026-05-04 00:31 | 21.98476 | -78.67560 | 37045 ft | 449 kts | 176° |
| 2026-05-04 00:31 | 21.92320 | -78.66372 | 37045 ft | 449 kts | 176° |
| 2026-05-04 00:32 | 21.86165 | -78.65107 | 37052 ft | 450 kts | 175° |
| 2026-05-04 00:32 | 21.80021 | -78.63782 | 37043 ft | 450 kts | 175° |
| 2026-05-04 00:33 | 21.70804 | -78.61978 | 37044 ft | 449 kts | 176° |
| 2026-05-04 00:34 | 21.64643 | -78.60936 | 37036 ft | 448 kts | 178° |
| 2026-05-04 00:34 | 21.58490 | -78.59893 | 37036 ft | 449 kts | 177° |
| 2026-05-04 00:35 | 21.52329 | -78.58730 | 37031 ft | 450 kts | 176° |
| 2026-05-04 00:35 | 21.46176 | -78.57520 | 37033 ft | 450 kts | 176° |
| 2026-05-04 00:36 | 21.40020 | -78.56323 | 37034 ft | 450 kts | 176° |
| 2026-05-04 00:36 | 21.33856 | -78.55146 | 37031 ft | 450 kts | 176° |
| 2026-05-04 00:37 | 21.27655 | -78.53967 | 37029 ft | 450 kts | 176° |
| 2026-05-04 00:37 | 21.21490 | -78.52793 | 37028 ft | 450 kts | 176° |
| 2026-05-04 00:38 | 21.15321 | -78.51616 | 37024 ft | 450 kts | 176° |
| 2026-05-04 00:38 | 21.09167 | -78.50272 | 37026 ft | 453 kts | 172° |
| 2026-05-04 00:39 | 21.03015 | -78.48897 | 37027 ft | 449 kts | 178° |
| 2026-05-04 00:39 | 20.96792 | -78.47997 | 37026 ft | 450 kts | 176° |
| 2026-05-04 00:40 | 20.90617 | -78.46818 | 37024 ft | 451 kts | 175° |
| 2026-05-04 00:40 | 20.84436 | -78.45663 | 37029 ft | 450 kts | 177° |
| 2026-05-04 00:41 | 20.78257 | -78.44569 | 37029 ft | 451 kts | 175° |
| 2026-05-04 00:41 | 20.72084 | -78.43246 | 37030 ft | 453 kts | 173° |
| 2026-05-04 00:42 | 20.65911 | -78.41959 | 37037 ft | 451 kts | 176° |
| 2026-05-04 00:42 | 20.59714 | -78.41013 | 37043 ft | 448 kts | 179° |
| 2026-05-04 00:43 | 20.53527 | -78.40018 | 37032 ft | 452 kts | 174° |
| 2026-05-04 00:43 | 20.47360 | -78.38711 | 37031 ft | 452 kts | 175° |
| 2026-05-04 00:44 | 20.41173 | -78.37552 | 37033 ft | 451 kts | 175° |
| 2026-05-04 00:44 | 20.34994 | -78.36361 | 37038 ft | 451 kts | 175° |
| 2026-05-04 00:45 | 20.28817 | -78.35196 | 37036 ft | 451 kts | 175° |
| 2026-05-04 00:45 | 20.22632 | -78.34138 | 37038 ft | 450 kts | 176° |
| 2026-05-04 00:46 | 20.16454 | -78.32956 | 37038 ft | 451 kts | 175° |
| 2026-05-04 00:46 | 20.10237 | -78.31726 | 37036 ft | 451 kts | 175° |
| 2026-05-04 00:47 | 20.04061 | -78.30578 | 37038 ft | 451 kts | 174° |
| 2026-05-04 00:47 | 19.97894 | -78.29324 | 37036 ft | 451 kts | 174° |
| 2026-05-04 00:48 | 19.91731 | -78.28075 | 37035 ft | 452 kts | 173° |
| 2026-05-04 00:48 | 19.85594 | -78.26576 | 37036 ft | 452 kts | 173° |
| 2026-05-04 00:49 | 19.79439 | -78.25181 | 37033 ft | 453 kts | 172° |
| 2026-05-04 00:49 | 19.73297 | -78.23636 | 37034 ft | 452 kts | 173° |
| 2026-05-04 00:50 | 19.67116 | -78.22459 | 37036 ft | 452 kts | 174° |
| 2026-05-04 00:50 | 19.60962 | -78.20985 | 37034 ft | 454 kts | 171° |
| 2026-05-04 00:51 | 19.54778 | -78.19412 | 37033 ft | 454 kts | 172° |
| 2026-05-04 00:51 | 19.48638 | -78.18143 | 37032 ft | 452 kts | 174° |
| 2026-05-04 00:52 | 19.42426 | -78.16759 | 37030 ft | 455 kts | 171° |
| 2026-05-04 00:52 | 19.36285 | -78.15127 | 37026 ft | 455 kts | 172° |
| 2026-05-04 00:53 | 19.30081 | -78.13780 | 37023 ft | 454 kts | 173° |
| 2026-05-04 00:53 | 19.23885 | -78.12423 | 37021 ft | 455 kts | 172° |
| 2026-05-04 00:54 | 19.17693 | -78.11043 | 37024 ft | 455 kts | 172° |
| 2026-05-04 00:54 | 19.11532 | -78.09386 | 37029 ft | 456 kts | 171° |
| 2026-05-04 00:55 | 19.05336 | -78.07958 | 37024 ft | 455 kts | 173° |
| 2026-05-04 00:55 | 18.99091 | -78.06656 | 37025 ft | 455 kts | 173° |
| 2026-05-04 00:56 | 18.92884 | -78.05297 | 37027 ft | 455 kts | 172° |
| 2026-05-04 00:56 | 18.86677 | -78.03873 | 37019 ft | 456 kts | 172° |
| 2026-05-04 00:57 | 18.80470 | -78.02443 | 37013 ft | 456 kts | 172° |
| 2026-05-04 00:57 | 18.75312 | -78.01266 | 37003 ft | 456 kts | 172° |
| 2026-05-04 00:58 | 18.69116 | -77.99863 | 36993 ft | 456 kts | 172° |
| 2026-05-04 00:58 | 18.62925 | -77.98462 | 36988 ft | 456 kts | 172° |
| 2026-05-04 00:59 | 18.56671 | -77.96988 | 36974 ft | 456 kts | 171° |
| 2026-05-04 00:59 | 18.50452 | -77.95473 | 36974 ft | 456 kts | 171° |
| 2026-05-04 01:00 | 18.44265 | -77.94043 | 36968 ft | 455 kts | 172° |
| 2026-05-04 01:00 | 18.38064 | -77.92658 | 36971 ft | 455 kts | 172° |
| 2026-05-04 01:01 | 18.31906 | -77.91283 | 36989 ft | 455 kts | 172° |
| 2026-05-04 01:01 | 18.25732 | -77.89890 | 37008 ft | 455 kts | 172° |
| 2026-05-04 01:02 | 18.19488 | -77.88477 | 37024 ft | 455 kts | 172° |
| 2026-05-04 01:02 | 18.13300 | -77.87080 | 37036 ft | 454 kts | 172° |
| 2026-05-04 01:03 | 18.07119 | -77.85687 | 37029 ft | 454 kts | 172° |
| 2026-05-04 01:03 | 18.00948 | -77.84298 | 37029 ft | 454 kts | 172° |
| 2026-05-04 01:04 | 17.94770 | -77.82908 | 37022 ft | 454 kts | 172° |
| 2026-05-04 01:04 | 17.88596 | -77.81520 | 37023 ft | 454 kts | 171° |
| 2026-05-04 01:05 | 17.82415 | -77.80163 | 37016 ft | 454 kts | 173° |
| 2026-05-04 01:05 | 17.76207 | -77.78970 | 37019 ft | 454 kts | 173° |
| 2026-05-04 01:06 | 17.70010 | -77.77653 | 37024 ft | 454 kts | 171° |
| 2026-05-04 01:06 | 17.63826 | -77.76225 | 37022 ft | 455 kts | 171° |
| 2026-05-04 01:07 | 17.57644 | -77.74805 | 37016 ft | 455 kts | 171° |
| 2026-05-04 01:07 | 17.51414 | -77.73412 | 37019 ft | 455 kts | 171° |
| 2026-05-04 01:08 | 17.45223 | -77.72039 | 37023 ft | 455 kts | 171° |
| 2026-05-04 01:08 | 17.39044 | -77.70657 | 37024 ft | 455 kts | 171° |
| 2026-05-04 01:09 | 17.32853 | -77.69279 | 37020 ft | 455 kts | 171° |
| 2026-05-04 01:09 | 17.26666 | -77.67904 | 37022 ft | 454 kts | 171° |
| 2026-05-04 01:10 | 17.20481 | -77.66518 | 37024 ft | 454 kts | 171° |
| 2026-05-04 01:10 | 17.14306 | -77.65129 | 37021 ft | 454 kts | 171° |
| 2026-05-04 01:11 | 17.08140 | -77.63759 | 37015 ft | 453 kts | 171° |
| 2026-05-04 01:11 | 17.01969 | -77.62395 | 37017 ft | 453 kts | 171° |
| 2026-05-04 01:12 | 16.95818 | -77.61017 | 37017 ft | 452 kts | 171° |
| 2026-05-04 01:12 | 16.89668 | -77.59642 | 37019 ft | 452 kts | 171° |
| 2026-05-04 01:13 | 16.83485 | -77.58270 | 37017 ft | 451 kts | 171° |
| 2026-05-04 01:13 | 16.77334 | -77.56909 | 37018 ft | 451 kts | 171° |
| 2026-05-04 01:14 | 16.71195 | -77.55544 | 37017 ft | 451 kts | 171° |
| 2026-05-04 01:14 | 16.65055 | -77.54180 | 37013 ft | 451 kts | 171° |
| 2026-05-04 01:15 | 16.58922 | -77.52832 | 37013 ft | 451 kts | 171° |
| 2026-05-04 01:15 | 16.52793 | -77.51469 | 37016 ft | 451 kts | 171° |
| 2026-05-04 01:16 | 16.46658 | -77.50109 | 37011 ft | 450 kts | 171° |
| 2026-05-04 01:16 | 16.40531 | -77.48758 | 37012 ft | 450 kts | 171° |
| 2026-05-04 01:17 | 16.34399 | -77.47402 | 37010 ft | 450 kts | 171° |
| 2026-05-04 01:17 | 16.28232 | -77.46041 | 37005 ft | 450 kts | 171° |
| 2026-05-04 01:18 | 16.22142 | -77.44694 | 37009 ft | 450 kts | 171° |
| 2026-05-04 01:18 | 16.15969 | -77.43322 | 37015 ft | 450 kts | 171° |
| 2026-05-04 01:19 | 16.09843 | -77.41971 | 37021 ft | 450 kts | 171° |
| 2026-05-04 01:19 | 16.03716 | -77.40622 | 37018 ft | 449 kts | 171° |
| 2026-05-04 01:20 | 15.97602 | -77.39270 | 37015 ft | 449 kts | 171° |
| 2026-05-04 01:20 | 15.91481 | -77.38000 | 37015 ft | 448 kts | 172° |
| 2026-05-04 01:21 | 15.85360 | -77.36816 | 37013 ft | 447 kts | 172° |
| 2026-05-04 01:21 | 15.79237 | -77.35625 | 37005 ft | 447 kts | 172° |
| 2026-05-04 01:22 | 15.73125 | -77.34415 | 37004 ft | 446 kts | 172° |
| 2026-05-04 01:22 | 15.66997 | -77.33188 | 36998 ft | 446 kts | 172° |
| 2026-05-04 01:23 | 15.60902 | -77.31972 | 36990 ft | 446 kts | 172° |
| 2026-05-04 01:23 | 15.54799 | -77.30761 | 36984 ft | 446 kts | 172° |
| 2026-05-04 01:24 | 15.48701 | -77.29551 | 36987 ft | 446 kts | 172° |
| 2026-05-04 01:24 | 15.43611 | -77.28534 | 36990 ft | 446 kts | 172° |
| 2026-05-04 01:25 | 15.37520 | -77.27316 | 36983 ft | 446 kts | 172° |
| 2026-05-04 01:25 | 15.31432 | -77.26112 | 36983 ft | 446 kts | 172° |
| 2026-05-04 01:26 | 15.25294 | -77.24911 | 36984 ft | 446 kts | 172° |
| 2026-05-04 01:26 | 15.19180 | -77.23708 | 36981 ft | 447 kts | 171° |
| 2026-05-04 01:27 | 15.13061 | -77.22480 | 36980 ft | 448 kts | 171° |
| 2026-05-04 01:27 | 15.06939 | -77.21253 | 36982 ft | 449 kts | 171° |
| 2026-05-04 01:28 | 15.00789 | -77.20029 | 36987 ft | 450 kts | 171° |
| 2026-05-04 01:28 | 14.94641 | -77.18813 | 36979 ft | 450 kts | 171° |
| 2026-05-04 01:29 | 14.88489 | -77.17579 | 36982 ft | 450 kts | 171° |
| 2026-05-04 01:29 | 14.82347 | -77.16333 | 36973 ft | 450 kts | 171° |
| 2026-05-04 01:30 | 14.76193 | -77.15093 | 36969 ft | 450 kts | 171° |
| 2026-05-04 01:30 | 14.70033 | -77.13848 | 36971 ft | 450 kts | 171° |
| 2026-05-04 01:31 | 14.63881 | -77.12620 | 36973 ft | 450 kts | 171° |
| 2026-05-04 01:31 | 14.57683 | -77.11381 | 36973 ft | 451 kts | 171° |
| 2026-05-04 01:32 | 14.51533 | -77.10146 | 36983 ft | 451 kts | 171° |
| 2026-05-04 01:32 | 14.45377 | -77.08909 | 36981 ft | 450 kts | 171° |
| 2026-05-04 01:33 | 14.39223 | -77.07664 | 36972 ft | 450 kts | 171° |
| 2026-05-04 01:33 | 14.33067 | -77.06427 | 36978 ft | 450 kts | 171° |
| 2026-05-04 01:34 | 14.26916 | -77.05191 | 36971 ft | 450 kts | 171° |
| 2026-05-04 01:34 | 14.20763 | -77.03963 | 36974 ft | 450 kts | 171° |
| 2026-05-04 01:35 | 14.14607 | -77.02736 | 36973 ft | 450 kts | 171° |
| 2026-05-04 01:35 | 14.08416 | -77.01496 | 36971 ft | 450 kts | 171° |
| 2026-05-04 01:36 | 14.02304 | -77.00270 | 36974 ft | 450 kts | 171° |
| 2026-05-04 01:36 | 13.96118 | -76.99033 | 36983 ft | 450 kts | 171° |
| 2026-05-04 01:37 | 13.89973 | -76.97806 | 36982 ft | 449 kts | 171° |
| 2026-05-04 01:37 | 13.83843 | -76.96575 | 36979 ft | 449 kts | 171° |
| 2026-05-04 01:38 | 13.77705 | -76.95354 | 36977 ft | 449 kts | 171° |
| 2026-05-04 01:38 | 13.71574 | -76.94134 | 36963 ft | 449 kts | 171° |
| 2026-05-04 01:39 | 13.65440 | -76.92916 | 36971 ft | 449 kts | 171° |
| 2026-05-04 01:39 | 13.59310 | -76.91697 | 36968 ft | 449 kts | 171° |
| 2026-05-04 01:40 | 13.53179 | -76.90468 | 36969 ft | 449 kts | 171° |
| 2026-05-04 01:40 | 13.47046 | -76.89248 | 36962 ft | 449 kts | 171° |
| 2026-05-04 01:41 | 13.40914 | -76.88029 | 36974 ft | 449 kts | 171° |
| 2026-05-04 01:41 | 13.34779 | -76.86816 | 36968 ft | 449 kts | 171° |
| 2026-05-04 01:42 | 13.28647 | -76.85593 | 36973 ft | 448 kts | 171° |
| 2026-05-04 01:42 | 13.22481 | -76.84362 | 36970 ft | 448 kts | 170° |
| 2026-05-04 01:43 | 13.16360 | -76.83152 | 36969 ft | 448 kts | 170° |
| 2026-05-04 01:43 | 13.10245 | -76.81935 | 36972 ft | 447 kts | 170° |
| 2026-05-04 01:44 | 13.04141 | -76.80728 | 36969 ft | 447 kts | 170° |
| 2026-05-04 01:44 | 12.98035 | -76.79522 | 36966 ft | 447 kts | 170° |
| 2026-05-04 01:45 | 12.91933 | -76.78315 | 36965 ft | 446 kts | 170° |
| 2026-05-04 01:45 | 12.82802 | -76.76509 | 36966 ft | 445 kts | 170° |
| 2026-05-04 01:46 | 12.76734 | -76.75309 | 36967 ft | 444 kts | 170° |
| 2026-05-04 01:46 | 12.70674 | -76.74108 | 36967 ft | 443 kts | 169° |
| 2026-05-04 01:47 | 12.64634 | -76.72916 | 36966 ft | 442 kts | 170° |
| 2026-05-04 01:47 | 12.58560 | -76.71720 | 36965 ft | 441 kts | 169° |
| 2026-05-04 01:48 | 12.52571 | -76.70536 | 36960 ft | 441 kts | 169° |
| 2026-05-04 01:48 | 12.46539 | -76.69353 | 36959 ft | 441 kts | 170° |
| 2026-05-04 01:49 | 12.40465 | -76.68169 | 36954 ft | 441 kts | 169° |
| 2026-05-04 01:49 | 12.34435 | -76.66985 | 36957 ft | 441 kts | 169° |
| 2026-05-04 01:50 | 12.28410 | -76.65803 | 36957 ft | 441 kts | 169° |
| 2026-05-04 01:50 | 12.22386 | -76.64619 | 36957 ft | 441 kts | 169° |
| 2026-05-04 01:51 | 12.16355 | -76.63433 | 36956 ft | 441 kts | 169° |
| 2026-05-04 01:51 | 12.10333 | -76.62253 | 36957 ft | 441 kts | 169° |
| 2026-05-04 01:52 | 12.04289 | -76.61079 | 36955 ft | 441 kts | 169° |
| 2026-05-04 01:52 | 11.98258 | -76.59905 | 36956 ft | 441 kts | 169° |
| 2026-05-04 01:53 | 11.92181 | -76.58709 | 36954 ft | 442 kts | 169° |
| 2026-05-04 01:53 | 11.86149 | -76.57531 | 36956 ft | 441 kts | 169° |
| 2026-05-04 01:54 | 11.81135 | -76.56554 | 36952 ft | 441 kts | 169° |
| 2026-05-04 01:54 | 11.75104 | -76.55368 | 36953 ft | 441 kts | 169° |
| 2026-05-04 01:55 | 11.69080 | -76.54189 | 36952 ft | 441 kts | 169° |
| 2026-05-04 01:55 | 11.63006 | -76.53008 | 36949 ft | 441 kts | 169° |
| 2026-05-04 01:56 | 11.56976 | -76.51829 | 36947 ft | 441 kts | 169° |
| 2026-05-04 01:56 | 11.50948 | -76.50655 | 36948 ft | 441 kts | 169° |
| 2026-05-04 01:57 | 11.44915 | -76.49484 | 36948 ft | 441 kts | 169° |
| 2026-05-04 01:57 | 11.38843 | -76.48305 | 36948 ft | 441 kts | 169° |
| 2026-05-04 01:58 | 11.32818 | -76.47126 | 36948 ft | 441 kts | 169° |
| 2026-05-04 01:58 | 11.26785 | -76.45944 | 36945 ft | 441 kts | 169° |
| 2026-05-04 01:59 | 11.20754 | -76.44774 | 36947 ft | 441 kts | 169° |
| 2026-05-04 01:59 | 11.14727 | -76.43607 | 36946 ft | 441 kts | 168° |
| 2026-05-04 02:00 | 11.08695 | -76.42430 | 36944 ft | 441 kts | 169° |
| 2026-05-04 02:00 | 11.02662 | -76.41263 | 36943 ft | 441 kts | 168° |
| 2026-05-04 02:01 | 10.96636 | -76.40086 | 36941 ft | 441 kts | 168° |
| 2026-05-04 02:01 | 10.90576 | -76.38906 | 36931 ft | 441 kts | 168° |
| 2026-05-04 02:02 | 10.84529 | -76.37740 | 36946 ft | 441 kts | 168° |
| 2026-05-04 02:02 | 10.78497 | -76.36574 | 36932 ft | 442 kts | 168° |
| 2026-05-04 02:03 | 10.72420 | -76.35387 | 36939 ft | 442 kts | 168° |
| 2026-05-04 02:03 | 10.66470 | -76.34228 | 36937 ft | 442 kts | 168° |
| 2026-05-04 02:04 | 10.60350 | -76.33046 | 36943 ft | 442 kts | 168° |
| 2026-05-04 02:04 | 10.54308 | -76.31882 | 36944 ft | 441 kts | 168° |
| 2026-05-04 02:05 | 10.48287 | -76.30722 | 36948 ft | 440 kts | 167° |
| 2026-05-04 02:05 | 10.42273 | -76.29553 | 36949 ft | 439 kts | 168° |
| 2026-05-04 02:06 | 10.36281 | -76.28388 | 36947 ft | 438 kts | 168° |
| 2026-05-04 02:06 | 10.30298 | -76.27228 | 36938 ft | 438 kts | 168° |
| 2026-05-04 02:07 | 10.24319 | -76.26075 | 36941 ft | 437 kts | 168° |
| 2026-05-04 02:07 | 10.18337 | -76.24917 | 36942 ft | 437 kts | 168° |
| 2026-05-04 02:08 | 10.12364 | -76.23765 | 36939 ft | 437 kts | 168° |
| 2026-05-04 02:08 | 10.06393 | -76.22616 | 36936 ft | 437 kts | 168° |
| 2026-05-04 02:09 | 10.00422 | -76.21464 | 36931 ft | 437 kts | 168° |
| 2026-05-04 02:09 | 9.94449 | -76.20305 | 36933 ft | 437 kts | 168° |
| 2026-05-04 02:10 | 9.88480 | -76.19154 | 36935 ft | 437 kts | 168° |
| 2026-05-04 02:10 | 9.82470 | -76.18004 | 36933 ft | 437 kts | 169° |
| 2026-05-04 02:11 | 9.76500 | -76.16858 | 36932 ft | 437 kts | 168° |
| 2026-05-04 02:11 | 9.70524 | -76.15705 | 36934 ft | 437 kts | 169° |
| 2026-05-04 02:12 | 9.64549 | -76.14550 | 36930 ft | 437 kts | 168° |
| 2026-05-04 02:12 | 9.58573 | -76.13396 | 36932 ft | 437 kts | 169° |
| 2026-05-04 02:13 | 9.52598 | -76.12230 | 36940 ft | 437 kts | 168° |
| 2026-05-04 02:13 | 9.46632 | -76.11027 | 36946 ft | 437 kts | 168° |
| 2026-05-04 02:14 | 9.40664 | -76.09827 | 36941 ft | 437 kts | 168° |
| 2026-05-04 02:14 | 9.34725 | -76.08644 | 36932 ft | 437 kts | 168° |
| 2026-05-04 02:15 | 9.28742 | -76.07454 | 36919 ft | 437 kts | 168° |
| 2026-05-04 02:15 | 9.22765 | -76.06265 | 36922 ft | 437 kts | 168° |
| 2026-05-04 02:16 | 9.18769 | -76.05469 | 36921 ft | 437 kts | 168° |
| 2026-05-04 02:16 | 9.14572 | -76.04635 | 36921 ft | 438 kts | 168° |
| 2026-05-04 02:17 | 9.08591 | -76.03443 | 36919 ft | 438 kts | 168° |
| 2026-05-04 02:17 | 9.02610 | -76.02245 | 36912 ft | 438 kts | 168° |
| 2026-05-04 02:18 | 8.96624 | -76.01058 | 36910 ft | 438 kts | 168° |
| 2026-05-04 02:18 | 8.90635 | -75.99876 | 36905 ft | 439 kts | 168° |
| 2026-05-04 02:19 | 8.84645 | -75.98682 | 36912 ft | 439 kts | 168° |
| 2026-05-04 02:19 | 8.78656 | -75.97486 | 36910 ft | 439 kts | 168° |
| 2026-05-04 02:20 | 8.72663 | -75.96290 | 36912 ft | 439 kts | 168° |
| 2026-05-04 02:20 | 8.66667 | -75.95101 | 36928 ft | 439 kts | 168° |
| 2026-05-04 02:21 | 8.60675 | -75.93906 | 36937 ft | 439 kts | 168° |
| 2026-05-04 02:21 | 8.54676 | -75.92710 | 36945 ft | 439 kts | 168° |
| 2026-05-04 02:22 | 8.48674 | -75.91533 | 36950 ft | 439 kts | 168° |
| 2026-05-04 02:22 | 8.42669 | -75.90350 | 36947 ft | 440 kts | 168° |
| 2026-05-04 02:23 | 8.36657 | -75.89155 | 36951 ft | 440 kts | 168° |
| 2026-05-04 02:23 | 8.30635 | -75.87953 | 36949 ft | 441 kts | 168° |
| 2026-05-04 02:24 | 8.25590 | -75.86951 | 36952 ft | 441 kts | 168° |
| 2026-05-04 02:24 | 8.19568 | -75.85767 | 36953 ft | 441 kts | 168° |
| 2026-05-04 02:25 | 8.13535 | -75.84573 | 36957 ft | 442 kts | 168° |
| 2026-05-04 02:25 | 8.07500 | -75.83375 | 36959 ft | 442 kts | 168° |
| 2026-05-04 02:26 | 8.01459 | -75.82176 | 36963 ft | 442 kts | 168° |
| 2026-05-04 02:26 | 7.95415 | -75.80976 | 36964 ft | 443 kts | 168° |
| 2026-05-04 02:27 | 7.89369 | -75.79774 | 36971 ft | 443 kts | 168° |
| 2026-05-04 02:27 | 7.83327 | -75.78562 | 36974 ft | 443 kts | 168° |
| 2026-05-04 02:28 | 7.77268 | -75.77357 | 36980 ft | 443 kts | 168° |
| 2026-05-04 02:28 | 7.71177 | -75.76152 | 36990 ft | 443 kts | 168° |
| 2026-05-04 02:29 | 7.65124 | -75.74945 | 36998 ft | 444 kts | 168° |
| 2026-05-04 02:29 | 7.59037 | -75.73931 | 36999 ft | 444 kts | 178° |
| 2026-05-04 02:30 | 7.52854 | -75.73831 | 37009 ft | 445 kts | 179° |
| 2026-05-04 02:30 | 7.46661 | -75.73763 | 37026 ft | 445 kts | 179° |
| 2026-05-04 02:31 | 7.40463 | -75.73697 | 37038 ft | 445 kts | 179° |
| 2026-05-04 02:31 | 7.34277 | -75.73625 | 37053 ft | 445 kts | 179° |
| 2026-05-04 02:32 | 7.28076 | -75.73547 | 37067 ft | 445 kts | 179° |
| 2026-05-04 02:32 | 7.21841 | -75.73474 | 37080 ft | 445 kts | 179° |
| 2026-05-04 02:33 | 7.15643 | -75.73403 | 37085 ft | 445 kts | 179° |
| 2026-05-04 02:33 | 7.09449 | -75.73341 | 37094 ft | 445 kts | 179° |
| 2026-05-04 02:34 | 7.03261 | -75.73266 | 37098 ft | 445 kts | 178° |
| 2026-05-04 02:34 | 6.97065 | -75.73190 | 37103 ft | 445 kts | 178° |
| 2026-05-04 02:35 | 6.90865 | -75.73114 | 37105 ft | 445 kts | 178° |
| 2026-05-04 02:35 | 6.84684 | -75.73046 | 37103 ft | 445 kts | 178° |
| 2026-05-04 02:36 | 6.78489 | -75.72978 | 37107 ft | 445 kts | 178° |
| 2026-05-04 02:36 | 6.72296 | -75.72914 | 37107 ft | 444 kts | 178° |
| 2026-05-04 02:37 | 6.66118 | -75.72840 | 37103 ft | 444 kts | 178° |
| 2026-05-04 02:37 | 6.59935 | -75.72755 | 37101 ft | 444 kts | 178° |
| 2026-05-04 02:38 | 6.53760 | -75.72677 | 37106 ft | 444 kts | 178° |
| 2026-05-04 02:38 | 6.47545 | -75.72612 | 37120 ft | 444 kts | 178° |
| 2026-05-04 02:39 | 6.41374 | -75.72539 | 37137 ft | 444 kts | 178° |
| 2026-05-04 02:39 | 6.35191 | -75.72464 | 37156 ft | 444 kts | 178° |
| 2026-05-04 02:40 | 6.32093 | -75.72426 | 37042 ft | 448 kts | 178° |
| 2026-05-04 02:40 | 6.29193 | -75.72391 | 36504 ft | 450 kts | 178° |
| 2026-05-04 02:40 | 6.26069 | -75.72355 | 35973 ft | 446 kts | 178° |
| 2026-05-04 02:40 | 6.22984 | -75.72320 | 35447 ft | 442 kts | 178° |
| 2026-05-04 02:41 | 6.19918 | -75.72286 | 34917 ft | 439 kts | 178° |
| 2026-05-04 02:41 | 6.16879 | -75.72253 | 34369 ft | 436 kts | 178° |
| 2026-05-04 02:41 | 6.13852 | -75.72220 | 33784 ft | 434 kts | 178° |
| 2026-05-04 02:41 | 6.10838 | -75.72186 | 33254 ft | 431 kts | 178° |
| 2026-05-04 02:42 | 6.07847 | -75.72150 | 32712 ft | 428 kts | 178° |
| 2026-05-04 02:42 | 6.04884 | -75.72114 | 32181 ft | 425 kts | 178° |
| 2026-05-04 02:42 | 6.01934 | -75.72076 | 31659 ft | 422 kts | 178° |
| 2026-05-04 02:42 | 5.99020 | -75.72037 | 31146 ft | 419 kts | 178° |
| 2026-05-04 02:43 | 5.96112 | -75.71999 | 30645 ft | 417 kts | 178° |
| 2026-05-04 02:43 | 5.93219 | -75.71966 | 30136 ft | 415 kts | 178° |
| 2026-05-04 02:43 | 5.90339 | -75.71935 | 29607 ft | 411 kts | 178° |
| 2026-05-04 02:43 | 5.87459 | -75.71905 | 29135 ft | 407 kts | 178° |
| 2026-05-04 02:44 | 5.84646 | -75.71874 | 28679 ft | 402 kts | 178° |
| 2026-05-04 02:44 | 5.81863 | -75.71841 | 28233 ft | 398 kts | 178° |
| 2026-05-04 02:44 | 5.79100 | -75.71806 | 27786 ft | 395 kts | 178° |
| 2026-05-04 02:44 | 5.76367 | -75.71772 | 27342 ft | 391 kts | 178° |
| 2026-05-04 02:45 | 5.73659 | -75.71739 | 26899 ft | 388 kts | 178° |
| 2026-05-04 02:45 | 5.70966 | -75.71708 | 26437 ft | 386 kts | 178° |
| 2026-05-04 02:45 | 5.68296 | -75.71681 | 25989 ft | 383 kts | 178° |
| 2026-05-04 02:45 | 5.65626 | -75.71654 | 25513 ft | 382 kts | 178° |
| 2026-05-04 02:46 | 5.62973 | -75.71625 | 25046 ft | 380 kts | 177° |
| 2026-05-04 02:46 | 5.60327 | -75.71594 | 24552 ft | 380 kts | 177° |
| 2026-05-04 02:46 | 5.57686 | -75.71562 | 24069 ft | 379 kts | 177° |
| 2026-05-04 02:46 | 5.55052 | -75.71529 | 23557 ft | 379 kts | 177° |
| 2026-05-04 02:47 | 5.52421 | -75.71499 | 23018 ft | 377 kts | 177° |
| 2026-05-04 02:47 | 5.49814 | -75.71470 | 22545 ft | 374 kts | 177° |
| 2026-05-04 02:47 | 5.47227 | -75.71442 | 22071 ft | 371 kts | 177° |
| 2026-05-04 02:47 | 5.44646 | -75.71413 | 21598 ft | 369 kts | 177° |
| 2026-05-04 02:48 | 5.42094 | -75.71384 | 21140 ft | 366 kts | 177° |
| 2026-05-04 02:48 | 5.39547 | -75.71353 | 20679 ft | 364 kts | 176° |
| 2026-05-04 02:48 | 5.37020 | -75.71320 | 20223 ft | 363 kts | 176° |
| 2026-05-04 02:48 | 5.34499 | -75.71288 | 19766 ft | 361 kts | 176° |
| 2026-05-04 02:49 | 5.31954 | -75.71260 | 19310 ft | 360 kts | 176° |
| 2026-05-04 02:49 | 5.29454 | -75.71231 | 18865 ft | 359 kts | 176° |
| 2026-05-04 02:49 | 5.26954 | -75.71203 | 18410 ft | 359 kts | 176° |
| 2026-05-04 02:49 | 5.24457 | -75.71174 | 17934 ft | 357 kts | 176° |
| 2026-05-04 02:50 | 5.21980 | -75.71146 | 17477 ft | 355 kts | 176° |
| 2026-05-04 02:50 | 5.19512 | -75.71118 | 17049 ft | 352 kts | 176° |
| 2026-05-04 02:50 | 5.17177 | -75.71092 | 16646 ft | 350 kts | 176° |
| 2026-05-04 02:50 | 5.14753 | -75.71063 | 16226 ft | 348 kts | 177° |
| 2026-05-04 02:51 | 5.12365 | -75.71212 | 15804 ft | 347 kts | 183° |
| 2026-05-04 02:51 | 5.09967 | -75.71439 | 15387 ft | 345 kts | 183° |
| 2026-05-04 02:51 | 5.07576 | -75.71664 | 14920 ft | 345 kts | 183° |
| 2026-05-04 02:51 | 5.06002 | -75.71810 | 14687 ft | 342 kts | 183° |
| 2026-05-04 02:52 | 5.02843 | -75.72105 | 14100 ft | 334 kts | 183° |
| 2026-05-04 02:52 | 5.01306 | -75.72249 | 13794 ft | 325 kts | 183° |
| 2026-05-04 02:52 | 4.99100 | -75.72455 | 13373 ft | 311 kts | 184° |
| 2026-05-04 02:52 | 4.96993 | -75.72651 | 13005 ft | 298 kts | 184° |
| 2026-05-04 02:53 | 4.94981 | -75.72835 | 12639 ft | 287 kts | 184° |
| 2026-05-04 02:53 | 4.92992 | -75.73016 | 12275 ft | 284 kts | 184° |
| 2026-05-04 02:53 | 4.91032 | -75.73194 | 11915 ft | 282 kts | 184° |
| 2026-05-04 02:53 | 4.89073 | -75.73372 | 11552 ft | 281 kts | 184° |
| 2026-05-04 02:54 | 4.87129 | -75.73552 | 11190 ft | 280 kts | 184° |
| 2026-05-04 02:54 | 4.85248 | -75.73726 | 10838 ft | 281 kts | 184° |
| 2026-05-04 02:54 | 4.83236 | -75.73913 | 10448 ft | 281 kts | 184° |
| 2026-05-04 02:54 | 4.81288 | -75.74019 | 10076 ft | 280 kts | 176° |
| 2026-05-04 02:55 | 4.77455 | -75.73276 | 9260 ft | 278 kts | 166° |
| 2026-05-04 02:55 | 4.75570 | -75.72840 | 8906 ft | 275 kts | 167° |
| 2026-05-04 02:55 | 4.73772 | -75.72428 | 8832 ft | 254 kts | 167° |
| 2026-05-04 02:56 | 4.72127 | -75.72053 | 8742 ft | 232 kts | 167° |
| 2026-05-04 02:56 | 4.70616 | -75.71710 | 8655 ft | 212 kts | 167° |
| 2026-05-04 02:56 | 4.69250 | -75.71399 | 8596 ft | 192 kts | 167° |
| 2026-05-04 02:56 | 4.67998 | -75.71270 | 8464 ft | 172 kts | 181° |
| 2026-05-04 02:57 | 4.66850 | -75.71431 | 8240 ft | 162 kts | 194° |
| 2026-05-04 02:57 | 4.65762 | -75.71724 | 7974 ft | 160 kts | 195° |
| 2026-05-04 02:57 | 4.64700 | -75.72008 | 7644 ft | 157 kts | 194° |
| 2026-05-04 02:57 | 4.63633 | -75.72273 | 7398 ft | 157 kts | 194° |
| 2026-05-04 02:58 | 4.62571 | -75.72529 | 7148 ft | 157 kts | 194° |
| 2026-05-04 02:58 | 4.61497 | -75.72784 | 6941 ft | 156 kts | 194° |
| 2026-05-04 02:58 | 4.60452 | -75.73031 | 6745 ft | 156 kts | 194° |
| 2026-05-04 02:58 | 4.59385 | -75.73283 | 6545 ft | 155 kts | 194° |
| 2026-05-04 02:59 | 4.58332 | -75.73531 | 6346 ft | 155 kts | 194° |
| 2026-05-04 02:59 | 4.57283 | -75.73778 | 6136 ft | 154 kts | 194° |
| 2026-05-04 02:59 | 4.56238 | -75.74024 | 5936 ft | 154 kts | 194° |
| 2026-05-04 02:59 | 4.55190 | -75.74271 | 5728 ft | 154 kts | 194° |
| 2026-05-04 03:00 | 4.54157 | -75.74515 | 5527 ft | 153 kts | 194° |
| 2026-05-04 03:00 | 4.53116 | -75.74760 | 5312 ft | 153 kts | 194° |
| 2026-05-04 03:00 | 4.52069 | -75.75006 | 5107 ft | 153 kts | 193° |
| 2026-05-04 03:00 | 4.51036 | -75.75249 | 4894 ft | 152 kts | 193° |
| 2026-05-04 03:01 | 4.50007 | -75.75492 | 4710 ft | 152 kts | 193° |
| 2026-05-04 03:01 | 4.48981 | -75.75733 | 4539 ft | 151 kts | 193° |
| 2026-05-04 03:01 | 4.47959 | -75.75969 | 4367 ft | 150 kts | 192° |
| 2026-05-04 03:01 | 4.46940 | -75.76194 | 4186 ft | 150 kts | 193° |
| 2026-05-04 03:02 | 4.45927 | -75.76445 | 3992 ft | 148 kts | 192° |
| 2026-05-04 03:02 | 4.45083 | -75.76655 | 3966 ft | 86 kts | 192° |
| 2026-05-04 03:02 | 4.44793 | -75.76725 | 3965 ft | 1 kts | 194° |
| 2026-05-04 03:02 | 4.44759 | -75.76720 | 3965 ft | 15 kts | 159° |
| 2026-05-04 03:03 | 4.44738 | -75.76739 | 3965 ft | 4 kts | 279° |
| 2026-05-04 03:03 | 4.44754 | -75.76750 | 3963 ft | 6 kts | 346° |
| 2026-05-04 03:03 | 4.44840 | -75.76713 | 3963 ft | 13 kts | 16° |
| 2026-05-04 03:03 | 4.44934 | -75.76695 | 3964 ft | 15 kts | 13° |
| 2026-05-04 03:04 | 4.45061 | -75.76661 | 3964 ft | 23 kts | 15° |
| 2026-05-04 03:04 | 4.45200 | -75.76655 | 3968 ft | 17 kts | 315° |
| 2026-05-04 03:04 | 4.45276 | -75.76699 | 3967 ft | 12 kts | 10° |
| 2026-05-04 03:04 | 4.45345 | -75.76691 | 3968 ft | 5 kts | 321° |
| 2026-05-04 03:05 | 4.45359 | -75.76731 | 3968 ft | 0 kts | 282° |